Flight Track Log - Related Links

Times and Time Zones

All times are in EDT time to prevent confusion due to time zone crossing. See the OPT429 flight status page for this flight to view local times or setup timezone preferences in your user account.

Time Position Orientation Groundspeed Altitude Reporting Facility
EDT Latitude Longitude Course Direction KTS MPH feet Rate Location/Type
07:53AM 39.1167 -94.6000 224° Southwest 171 197 1,500  Level Kansas City TRACON
07:54AM 39.0831 -94.6411 224° Southwest 167 192 4,300 2,400 Climbing Kansas City Center
07:55AM 39.0869 -94.7103 274° West 213 245 6,500 1,918 Climbing Kansas City Center
07:56AM 39.1150 -94.7978 292° West 268 308 8,200 2,016 Climbing Kansas City Center
07:57AM 39.1469 -94.8953 293° West 290 334 10,600 2,033 Climbing Kansas City Center
07:58AM 39.1803 -94.9989 293° West 313 360 12,300 1,884 Climbing Kansas City Center
07:59AM 39.2203 -95.1250 292° West 337 388 14,400 2,032 Climbing Kansas City Center
08:00AM 39.2572 -95.2456 292° West 345 397 16,500 1,839 Climbing Kansas City Center
08:01AM 39.2942 -95.3689 291° West 352 405 18,200 1,574 Climbing Kansas City Center
08:02AM 39.2969 -95.4833 272° West 354 407 19,700 1,512 Climbing Kansas City Center
08:03AM 39.2983 -95.6111 271° West 356 410 21,300 1,561 Climbing Kansas City Center
08:04AM 39.2994 -95.7411 271° West 361 415 22,900 1,574 Climbing Kansas City Center
08:05AM 39.3011 -95.8742 271° West 367 422 24,500 1,574 Climbing Kansas City Center
08:06AM 39.3022 -96.0075 271° West 369 425 26,100 1,525 Climbing Kansas City Center
08:07AM 39.3036 -96.1669 271° West 370 426 27,600 1,240 Climbing Kansas City Center
08:08AM 39.3036 -96.2828 270° West 375 432 28,600 1,230 Climbing Kansas City Center
08:09AM 39.3050 -96.4483 271° West 382 440 30,100 1,488 Climbing Kansas City Center
08:10AM 39.3050 -96.5778 270° West 384 442 31,700 1,500 Climbing Kansas City Center
08:11AM 39.3058 -96.7117 271° West 379 436 33,200 1,426 Climbing Kansas City Center
08:12AM 39.3058 -96.8456 270° West 378 435 34,600 1,268 Climbing Kansas City Center
08:13AM 39.3064 -96.9797 270° West 378 435 35,800 1,171 Climbing Kansas City Center
08:14AM 39.3069 -97.1139 270° West 378 435 37,000 1,131 Climbing Kansas City Center
08:15AM 39.3064 -97.2469 270° West 377 434 38,100 1,230 Climbing Kansas City Center
08:16AM 39.3053 -97.4033 270° West 368 423 39,500 984 Climbing Kansas City Center
08:17AM 39.3050 -97.5342 270° West 366 421 40,100 732 Climbing Kansas City Center
08:18AM 39.3036 -97.6758 269° West 366 421 41,000 780 Climbing Kansas City Center
08:19AM 39.3019 -97.8028 269° West 358 412 41,700 484 Climbing Kansas City Center
08:20AM 39.3025 -97.9172 270° West 357 411 42,000 288 Climbing Kansas City Center
08:21AM 39.3017 -98.0458 270° West 356 410 42,300 300 Climbing Kansas City Center
08:22AM 39.3006 -98.1778 269° West 364 419 42,600 344 Climbing Kansas City Center
08:23AM 39.2981 -98.3292 269° West 378 435 43,000 194 Climbing Kansas City Center
08:24AM 39.2958 -98.4625 269° West 374 430 43,000  Level Kansas City Center
08:25AM 39.2961 -98.6067 270° West 371 427 43,000  Level Kansas City Center
08:26AM 39.2939 -98.7436 269° West 376 433 43,000  Level Kansas City Center
08:27AM 39.2917 -98.8778 269° West 376 433 43,000  Level Kansas City Center
08:28AM 39.2883 -99.0169 268° West 380 437 43,000  Level Kansas City Center
08:29AM 39.2853 -99.1506 268° West 376 433 43,000  Level Kansas City Center
08:30AM 39.2822 -99.2856 268° West 376 433 43,000  Level Kansas City Center
08:32AM 39.2800 -99.4211 269° West 377 434 43,000  Level Kansas City Center
08:33AM 39.2764 -99.5836 268° West 377 434 43,000  Level Kansas City Center
08:34AM 39.2728 -99.7122 268° West 377 434 43,000  Level Kansas City Center
08:35AM 39.2692 -99.8625 268° West 376 433 43,000  Level Kansas City Center
08:36AM 39.2647 -99.9892 267° West 376 433 43,000  Level Kansas City Center
08:37AM 39.2614 -100.1186 268° West 376 433 43,000  Level Kansas City Center
08:38AM 39.2792 -100.2678 279° West 381 438 43,000  Level Kansas City Center
08:39AM 39.3547 -100.4422 299° West 396 456 43,000  Level Denver Center
08:40AM 39.4158 -100.5811 300° West 398 458 43,000  Level Denver Center
08:41AM 39.4689 -100.7000 300° West 398 458 43,000  Level Denver Center
08:42AM 39.5208 -100.8208 299° West 399 459 43,000  Level Denver Center
08:43AM 39.5819 -100.9592 300° West 399 459 43,000  Level Denver Center
08:44AM 39.6342 -101.0814 299° West 399 459 43,000  Level Denver Center
08:45AM 39.6861 -101.2008 300° West 399 459 43,000  Level Denver Center
08:46AM 39.7458 -101.3406 299° West 397 457 43,000  Level Denver Center
08:47AM 39.7981 -101.4606 300° West 397 457 43,000  Level Denver Center
08:48AM 39.8492 -101.5806 299° West 397 457 43,000  Level Denver Center
08:49AM 39.9081 -101.7200 299° West 394 453 43,000  Level Denver Center
08:51AM 40.0089 -101.9578 313° West 393 452 43,000  Level Denver Center
08:52AM 40.0661 -102.0953 299° West 388 447 43,000  Level Denver Center
08:53AM 40.1153 -102.2147 298° West 389 448 43,000  Level Denver Center
08:54AM 40.1744 -102.3528 299° West 389 448 43,000  Level Denver Center
08:55AM 40.2231 -102.4717 298° West 388 447 43,000 -195 Level Denver Center
08:56AM 40.2722 -102.5900 299° West 388 447 42,600 -738 Descending Denver Center
08:57AM 40.3308 -102.7317 299° West 388 447 41,500 -1,033 Descending Denver Center
08:58AM 40.3842 -102.8619 298° West 405 466 40,500 -984 Descending Denver Center
08:59AM 40.4361 -102.9897 298° West 396 456 39,500 -1,279 Descending Denver Center
09:00AM 40.4842 -103.1097 298° West 374 430 37,900 -2,164 Descending Denver Center
09:01AM 40.5358 -103.2350 299° West 389 448 35,100 -1,902 Descending Denver Center
09:03AM 40.5850 -103.3575 298° West 384 442 34,000 -1,707 Descending Denver Center
09:04AM 40.6347 -103.4811 298° West 383 441 31,600 -2,311 Descending Denver Center
09:05AM 40.6833 -103.6039 298° West 382 440 29,300 -2,262 Descending Denver Center
09:06AM 40.7322 -103.7253 298° West 380 437 27,000 -2,607 Descending Denver Center
09:07AM 40.7911 -103.8631 299° West 363 418 24,000 -2,634 Descending Denver Center
09:08AM 40.8397 -103.9731 300° West 352 405 21,600 -2,390 Descending Denver Center
09:09AM 40.8872 -104.0825 300° West 348 400 19,100 -2,311 Descending Denver Center
09:10AM 40.9325 -104.1867 300° West 330 380 16,900 -2,213 Descending Denver Center
09:11AM 40.9742 -104.2814 300° West 310 357 14,600 -2,115 Descending Denver Center
09:12AM 41.0136 -104.3717 300° West 292 336 12,600 -1,967 Descending Denver Center
09:14AM 41.0768 -104.6046 297° West  Level FlightAware Approximate
09:21AM 41.1500 -104.8000 297° West  Level FlightAware Approximate
09:22AM 41.1556 -104.8105 North  Level Estimated
09:23AM 41.1556 -104.8105 297° West  Level Estimated
09:24AM 41.1556 -104.8105 126° Southeast  Level Estimated
09:25AM 41.1556 -104.8105 297° West  Level Estimated
09:26AM 41.1556 -104.8105 126° Southeast  Level Estimated
09:27AM 41.1556 -104.8105 297° West  Level Estimated

Login

Don't have an account? Register now (free) for customized features, flight alerts, and more!